Time;durP1;ratioP1;P1;durP2;ratioP2;P2;SDS_P1;SDS_P2;PMS_P1;PMS_P2;Temp;Humidity;BMP_temperature;BMP_pressure;BME280_temperature;BME280_humidity;BME280_pressure;Samples;Min_cycle;Max_cycle;Signal;HPM_P1;HPM_P2
2022/01/08 00:01:26;;;;;;;19.83;11.68;;;;;;;-0.72;50.19;100148.41;7712948;32;39266;-78
2022/01/08 00:05:42;;;;;;;22.52;13.27;;;;;;;-0.63;50.93;100146.44;7712860;32;39820;-79
2022/01/08 00:09:58;;;;;;;17.65;10.70;;;;;;;-0.70;52.28;100156.25;7712625;32;37578;-79
2022/01/08 00:14:15;;;;;;;24.85;11.75;;;;;;;-0.46;51.81;100145.16;7712707;32;36987;-79
2022/01/08 00:18:31;;;;;;;21.05;11.63;;;;;;;-0.62;51.60;100148.06;7712660;32;39017;-79
2022/01/08 00:22:50;;;;;;;19.67;10.27;;;;;;;-0.38;51.07;100149.56;7712564;32;39707;-79
2022/01/08 00:27:06;;;;;;;26.30;11.85;;;;;;;-0.56;49.80;100131.25;7712238;32;38678;-79
2022/01/08 00:31:22;;;;;;;19.42;11.57;;;;;;;-0.40;50.38;100114.94;7712351;32;37367;-79
2022/01/08 00:35:38;;;;;;;20.50;11.57;;;;;;;-0.46;51.31;100115.69;7712454;32;40001;-79
2022/01/08 00:39:54;;;;;;;17.50;10.60;;;;;;;-0.45;51.84;100112.00;7712388;32;39881;-79
2022/01/08 00:44:10;;;;;;;21.37;12.00;;;;;;;-0.37;51.91;100107.53;7712254;32;38672;-79
2022/01/08 00:48:26;;;;;;;18.67;10.50;;;;;;;-0.67;52.96;100116.53;7712247;32;37158;-79
2022/01/08 00:52:43;;;;;;;21.83;11.07;;;;;;;-0.45;52.24;100114.69;7712387;32;39288;-79
2022/01/08 00:56:59;;;;;;;20.75;10.77;;;;;;;-0.35;51.84;100111.66;7712549;32;38255;-79
2022/01/08 01:01:15;;;;;;;14.98;9.50;;;;;;;-0.47;50.58;100099.81;7712093;32;37895;-79
2022/01/08 01:05:31;;;;;;;13.18;8.27;;;;;;;-0.43;50.00;100091.22;7712158;32;37772;-79
2022/01/08 01:09:47;;;;;;;16.85;9.30;;;;;;;-0.25;48.26;100079.19;7698281;32;39123;-79
2022/01/08 01:14:03;;;;;;;13.77;8.95;;;;;;;-0.31;47.85;100085.31;7711887;32;39840;-78
2022/01/08 01:18:19;;;;;;;18.02;9.75;;;;;;;-0.30;47.84;100070.91;7711809;32;37844;-78
2022/01/08 01:23:29;;;;;;;15.48;9.30;;;;;;;-0.43;47.19;100067.09;7711907;32;37092;-78
2022/01/08 01:49:52;;;;;;;16.80;8.02;;;;;;;-0.21;45.34;100037.56;7711683;32;39913;-79
2022/01/08 01:54:09;;;;;;;14.15;8.05;;;;;;;-0.14;44.98;100034.94;7710855;32;37963;-79
2022/01/08 01:58:25;;;;;;;14.40;7.45;;;;;;;-0.16;44.53;100023.59;7711524;32;38122;-79
2022/01/08 02:02:41;;;;;;;12.98;7.55;;;;;;;-0.10;43.85;100042.41;7711518;32;39222;-78
2022/01/08 02:06:58;;;;;;;11.12;7.50;;;;;;;-0.11;43.66;100032.69;7711494;32;39756;-79
2022/01/08 02:11:17;;;;;;;12.88;7.65;;;;;;;-0.21;44.07;100034.91;7711312;32;38653;-79
2022/01/08 02:15:33;;;;;;;13.90;8.68;;;;;;;-0.07;44.61;100023.25;7711439;32;37151;-79
2022/01/08 02:19:55;;;;;;;11.00;8.13;;;;;;;-0.09;45.59;100030.66;7711377;32;39353;-78
2022/01/08 02:24:11;;;;;;;14.07;8.25;;;;;;;-0.22;46.24;100026.03;7711347;32;39925;-78
2022/01/08 02:28:27;;;;;;;15.32;8.35;;;;;;;-0.50;46.12;100023.37;7710972;32;38591;-78
2022/01/08 02:32:44;;;;;;;12.95;8.00;;;;;;;-0.52;45.74;100020.03;7711102;32;36923;-78
2022/01/08 02:37:01;;;;;;;17.77;8.30;;;;;;;-0.70;46.30;100012.47;7711048;32;40113;-79
2022/01/08 02:41:17;;;;;;;12.95;7.82;;;;;;;-0.85;46.35;100020.56;7710990;32;39726;-78
2022/01/08 02:45:33;;;;;;;11.40;7.10;;;;;;;-0.88;46.18;100001.38;7710958;32;38511;-79
2022/01/08 02:49:52;;;;;;;12.10;7.57;;;;;;;-0.98;46.45;100004.41;7710914;32;37066;-79
2022/01/08 02:54:11;;;;;;;14.80;8.48;;;;;;;-0.98;46.18;99996.38;7710862;32;39266;-78
2022/01/08 02:58:28;;;;;;;11.63;7.40;;;;;;;-1.00;46.17;99996.56;7710793;32;39894;-78
2022/01/08 03:02:49;;;;;;;14.32;7.78;;;;;;;-0.86;45.34;100000.19;7710592;32;38620;-78
2022/01/08 03:07:06;;;;;;;12.10;7.82;;;;;;;-0.78;45.15;99994.72;7709402;32;37135;-79
2022/01/08 03:11:22;;;;;;;12.00;7.40;;;;;;;-0.83;45.81;99990.94;7710447;32;40034;-78
2022/01/08 03:15:41;;;;;;;14.80;8.20;;;;;;;-0.96;46.24;99997.00;7710692;32;40027;-78
2022/01/08 03:20:03;;;;;;;18.00;9.50;;;;;;;-1.11;47.52;99993.56;7710163;32;38420;-78
2022/01/08 03:24:27;;;;;;;19.23;10.00;;;;;;;-0.95;47.58;99991.47;7710147;32;37342;-78
2022/01/08 03:28:44;;;;;;;15.52;9.65;;;;;;;-0.93;49.43;99987.75;7709764;32;39142;-78
2022/01/08 03:33:00;;;;;;;17.08;10.20;;;;;;;-0.96;49.59;99997.00;7709952;32;40801;-78
2022/01/08 03:37:16;;;;;;;16.90;10.00;;;;;;;-0.91;49.23;99986.56;7709842;32;37723;-78
2022/01/08 03:41:32;;;;;;;18.90;10.30;;;;;;;-0.69;48.92;99983.84;7709847;32;38002;-78
2022/01/08 03:45:48;;;;;;;16.50;9.25;;;;;;;-0.92;49.49;99995.59;7709742;32;39834;-79
2022/01/08 03:50:04;;;;;;;17.60;9.98;;;;;;;-0.99;49.71;99997.38;7709579;32;39890;-78
2022/01/08 03:54:22;;;;;;;16.80;9.73;;;;;;;-1.06;50.24;100001.84;7709335;32;38779;-78
2022/01/08 03:58:38;;;;;;;19.65;10.23;;;;;;;-1.22;51.00;99992.22;7709385;32;37274;-78
2022/01/08 04:02:54;;;;;;;17.23;10.63;;;;;;;-1.31;51.37;99994.19;7709216;32;39335;-78
2022/01/08 04:07:14;;;;;;;16.95;9.52;;;;;;;-1.38;51.49;99998.59;7709091;32;40780;-78
2022/01/08 04:11:30;;;;;;;11.48;7.30;;;;;;;-1.23;50.40;99993.22;7708962;32;38734;-78
2022/01/08 04:15:47;;;;;;;12.45;7.70;;;;;;;-1.40;50.36;99985.41;7708959;32;37820;-78
2022/01/08 04:20:04;;;;;;;14.50;8.23;;;;;;;-1.53;50.49;99970.06;7711874;32;39263;-78
2022/01/08 04:24:20;;;;;;;11.48;7.35;;;;;;;-1.70;50.29;99963.28;7712708;32;40028;-78
2022/01/08 04:28:36;;;;;;;14.65;7.47;;;;;;;-1.74;50.11;99956.69;7712378;32;38652;-78
2022/01/08 04:32:52;;;;;;;8.65;6.37;;;;;;;-1.55;49.15;99950.72;7712511;32;37167;-78
2022/01/08 04:37:08;;;;;;;13.75;7.93;;;;;;;-1.14;47.43;99955.47;7712560;32;40130;-78
2022/01/08 04:41:24;;;;;;;13.45;7.40;;;;;;;-1.60;48.48;99942.44;7712492;32;40970;-78
2022/01/08 04:45:40;;;;;;;13.05;7.25;;;;;;;-1.41;47.61;99941.00;7712309;32;37832;-78
2022/01/08 04:49:56;;;;;;;10.88;6.40;;;;;;;-1.56;47.67;99942.88;7712322;32;38030;-78
2022/01/08 04:54:12;;;;;;;14.25;7.47;;;;;;;-1.55;47.85;99940.03;7712404;32;39346;-78
2022/01/08 04:58:28;;;;;;;10.23;6.50;;;;;;;-1.60;48.73;99938.94;7712231;32;40525;-78
2022/01/08 05:02:44;;;;;;;9.88;6.80;;;;;;;-1.30;47.55;99944.19;7712083;32;37788;-78
2022/01/08 05:07:01;;;;;;;12.00;7.30;;;;;;;-1.56;48.11;99937.53;7712188;32;37104;-78
2022/01/08 05:11:17;;;;;;;9.23;6.75;;;;;;;-1.43;47.72;99936.84;7712120;32;39396;-78
2022/01/08 05:15:34;;;;;;;10.77;7.37;;;;;;;-1.47;47.57;99930.22;7712061;32;40915;-78
2022/01/08 05:19:50;;;;;;;14.25;6.75;;;;;;;-1.56;47.51;99924.97;7711948;32;38656;-78
2022/01/08 05:24:06;;;;;;;10.38;6.85;;;;;;;-1.59;48.08;99944.06;7711779;32;37163;-77
2022/01/08 05:28:22;;;;;;;12.85;8.23;;;;;;;-1.68;48.29;99929.16;7711409;32;39938;-78
2022/01/08 05:32:39;;;;;;;17.12;8.63;;;;;;;-1.72;48.16;99931.41;7711241;32;40699;-78
2022/01/08 05:36:55;;;;;;;13.55;7.87;;;;;;;-1.77;49.01;99949.03;7711809;32;37926;-78
2022/01/08 05:41:11;;;;;;;18.45;8.93;;;;;;;-1.77;49.56;99951.69;7711845;32;36867;-78
2022/01/08 05:45:27;;;;;;;14.23;8.05;;;;;;;-1.74;50.12;99964.69;7711812;32;39892;-79
2022/01/08 05:49:43;;;;;;;15.73;8.00;;;;;;;-1.66;50.61;99964.56;7711825;32;39607;-77
2022/01/08 05:53:59;;;;;;;16.05;8.63;;;;;;;-1.77;50.72;99975.75;7711563;32;37497;-77
2022/01/08 05:58:15;;;;;;;13.35;8.35;;;;;;;-1.69;50.37;99986.34;7712028;32;34930;-78
2022/01/08 06:02:31;;;;;;;16.67;8.63;;;;;;;-1.91;51.06;99978.25;7711592;32;39769;-77
2022/01/08 06:06:47;;;;;;;13.00;8.63;;;;;;;-2.13;51.83;99979.19;7711524;32;39694;-76
2022/01/08 06:11:03;;;;;;;15.30;9.75;;;;;;;-2.03;51.56;99984.25;7711364;32;38591;-77
2022/01/08 06:15:20;;;;;;;17.17;9.20;;;;;;;-2.32;52.51;99981.38;7711308;32;38143;-78
2022/01/08 06:19:41;;;;;;;17.95;8.45;;;;;;;-2.45;53.32;99975.84;7711421;32;39824;-78
2022/01/08 06:23:58;;;;;;;16.70;8.43;;;;;;;-2.59;53.62;99985.47;7711171;32;40487;-77
2022/01/08 06:28:15;;;;;;;13.88;8.35;;;;;;;-2.70;53.80;99992.09;7710995;32;37889;-78
2022/01/08 06:32:31;;;;;;;19.25;9.82;;;;;;;-2.52;53.51;99991.78;7711182;32;36923;-78
2022/01/08 06:36:47;;;;;;;13.65;8.07;;;;;;;-2.57;53.36;99999.50;7711137;32;39855;-77
2022/01/08 06:41:03;;;;;;;13.05;8.13;;;;;;;-2.20;52.44;99994.28;7710862;32;39595;-78
2022/01/08 06:45:19;;;;;;;14.98;9.18;;;;;;;-2.54;53.09;99987.63;7711021;32;37516;-78
2022/01/08 06:49:35;;;;;;;14.25;8.30;;;;;;;-2.50;52.77;99981.75;7711002;32;37024;-79
2022/01/08 06:53:51;;;;;;;12.13;7.55;;;;;;;-2.54;52.47;99977.75;7710687;32;39026;-78
2022/01/08 06:58:07;;;;;;;12.80;7.82;;;;;;;-2.06;50.86;99974.75;7710733;32;40533;-78
2022/01/08 07:02:23;;;;;;;15.02;8.35;;;;;;;-2.46;51.50;99968.84;7710592;32;37821;-78
2022/01/08 07:06:39;;;;;;;15.77;8.73;;;;;;;-2.37;51.44;99966.94;7710582;32;37632;-78
2022/01/08 07:10:55;;;;;;;15.70;8.65;;;;;;;-2.29;51.28;99967.66;7710512;32;40105;-78
2022/01/08 07:15:12;;;;;;;15.10;8.30;;;;;;;-2.66;52.66;99969.38;7709125;32;40855;-78
2022/01/08 07:19:28;;;;;;;12.82;8.45;;;;;;;-2.12;51.27;99970.13;7710340;32;37900;-78
2022/01/08 07:23:44;;;;;;;14.90;8.45;;;;;;;-2.31;51.74;99964.34;7710256;32;37107;-79
2022/01/08 07:28:00;;;;;;;10.90;7.68;;;;;;;-2.29;52.19;99956.16;7709997;32;39997;-78
2022/01/08 07:32:16;;;;;;;10.88;7.62;;;;;;;-2.28;52.49;99960.47;7709819;32;40874;-78
2022/01/08 07:36:33;;;;;;;13.35;8.88;;;;;;;-1.92;51.79;99954.38;7709852;32;38680;-79
2022/01/08 07:40:51;;;;;;;12.13;8.35;;;;;;;-1.37;57.67;99936.09;7709913;32;37514;-79
2022/01/08 07:45:08;;;;;;;16.17;8.35;;;;;;;-1.28;52.78;99924.22;7709817;32;38305;-79
2022/01/08 07:49:24;;;;;;;13.57;8.07;;;;;;;-1.18;51.05;99923.94;7709455;32;40930;-79
2022/01/08 07:53:40;;;;;;;15.23;9.93;;;;;;;-1.09;51.33;99917.41;7711005;32;37751;-79
2022/01/08 07:57:57;;;;;;;17.55;11.30;;;;;;;-1.52;52.20;99912.06;7713042;32;37248;-79
2022/01/08 08:02:13;;;;;;;16.87;9.93;;;;;;;-1.69;53.63;99911.50;7712912;32;39385;-79
2022/01/08 08:06:29;;;;;;;17.65;10.57;;;;;;;-1.26;52.93;99902.66;7712863;32;40036;-80
2022/01/08 08:10:50;;;;;;;18.65;10.93;;;;;;;-1.74;54.81;99911.22;7712700;32;37872;-79
2022/01/08 08:15:07;;;;;;;21.95;10.68;;;;;;;-1.60;53.84;99905.00;7712748;32;37256;-79
2022/01/08 08:19:23;;;;;;;18.70;10.02;;;;;;;-1.00;52.03;99912.75;7712843;32;39832;-79
2022/01/08 08:23:39;;;;;;;16.87;9.75;;;;;;;-0.62;49.14;99901.69;7712634;32;39619;-80
2022/01/08 08:27:55;;;;;;;15.43;9.60;;;;;;;-0.41;49.11;99893.59;7712526;32;37491;-79
2022/01/08 08:32:11;;;;;;;14.52;9.45;;;;;;;-0.26;48.53;99884.59;7712602;32;37626;-78
2022/01/08 08:36:27;;;;;;;21.30;9.48;;;;;;;0.27;47.45;99884.81;7712597;32;40133;-80
2022/01/08 08:40:43;;;;;;;20.60;9.98;;;;;;;0.37;48.28;99884.44;7712458;32;39890;-79
2022/01/08 08:45:00;;;;;;;21.23;10.15;;;;;;;0.89;47.42;99869.41;7712346;32;38020;-79
2022/01/08 08:49:16;;;;;;;21.80;11.07;;;;;;;0.93;46.97;99872.53;7712611;32;38020;-78
2022/01/08 08:53:32;;;;;;;19.27;11.15;;;;;;;1.40;46.83;99870.63;7712262;32;39386;-79
2022/01/08 08:57:48;;;;;;;23.90;12.05;;;;;;;1.46;45.64;99871.66;7698359;32;39939;-79
2022/01/08 09:02:04;;;;;;;15.10;9.48;;;;;;;1.63;44.87;99866.66;7712040;32;37822;-80
2022/01/08 09:06:21;;;;;;;20.95;10.07;;;;;;;1.58;46.32;99863.75;7709963;32;38122;-80
2022/01/08 09:10:37;;;;;;;16.02;9.80;;;;;;;1.86;46.97;99860.75;7712072;32;38998;-80
2022/01/08 09:14:53;;;;;;;17.00;9.77;;;;;;;1.61;47.07;99864.16;7711891;32;39660;-80
2022/01/08 09:19:09;;;;;;;21.75;10.95;;;;;;;1.95;46.63;99839.84;7711917;32;37509;-80
2022/01/08 09:23:25;;;;;;;17.80;10.52;;;;;;;2.02;47.65;99849.53;7711775;32;37863;-80
2022/01/08 09:27:41;;;;;;;22.23;11.30;;;;;;;2.31;47.09;99841.09;7709605;32;39300;-81
2022/01/08 09:31:57;;;;;;;19.42;10.85;;;;;;;2.53;46.28;99830.81;7709122;32;40721;-79
2022/01/08 09:36:14;;;;;;;20.08;11.55;;;;;;;2.92;45.96;99826.19;7697566;32;38733;-79
2022/01/08 09:40:30;;;;;;;24.65;11.35;;;;;;;2.24;45.65;99836.59;7710934;32;37311;-79
2022/01/08 09:44:46;;;;;;;17.60;9.80;;;;;;;2.49;46.91;99841.19;7711169;32;39430;-78
2022/01/08 09:49:02;;;;;;;21.10;11.45;;;;;;;2.51;50.10;99847.19;7711340;32;41056;-79
2022/01/08 09:53:19;;;;;;;20.10;10.10;;;;;;;3.27;45.42;99834.53;7710578;32;38513;-79
2022/01/08 09:57:35;;;;;;;19.83;11.73;;;;;;;3.13;42.71;99827.63;7711045;32;37109;-80
2022/01/08 10:01:58;;;;;;;15.82;9.15;;;;;;;3.48;42.31;99827.88;7710822;32;39644;-80
2022/01/08 10:06:20;;;;;;;16.92;9.48;;;;;;;3.73;41.13;99813.50;7711122;32;40181;-80
2022/01/08 10:10:36;;;;;;;14.87;9.48;;;;;;;4.03;40.55;99805.44;7697811;32;37864;-80
2022/01/08 10:19:27;;;;;;;20.02;8.57;;;;;;;3.93;40.84;99794.38;7711091;32;39429;-80
2022/01/08 10:23:46;;;;;;;16.58;8.25;;;;;;;4.51;38.73;99784.81;7710516;32;39707;-79
2022/01/08 10:28:02;;;;;;;11.98;6.55;;;;;;;4.93;38.19;99781.22;7696960;32;37730;-80
2022/01/08 10:32:26;;;;;;;13.30;6.93;;;;;;;5.59;34.01;99789.97;7696822;32;38040;-80
2022/01/08 10:36:43;;;;;;;14.75;6.53;;;;;;;5.32;33.73;99784.25;7710863;32;40122;-80
2022/01/08 10:41:01;;;;;;;18.73;7.95;;;;;;;5.70;33.44;99774.78;7710374;32;41247;-80
2022/01/08 10:45:17;;;;;;;16.60;9.70;;;;;;;5.88;35.21;99776.47;7710361;32;37849;-79
2022/01/08 10:50:00;;;;;;;18.08;9.35;;;;;;;5.76;36.55;99765.66;7705779;32;150357;-80
2022/01/08 10:54:16;;;;;;;20.88;10.52;;;;;;;5.54;36.53;99777.16;7705813;32;39283;-80
2022/01/08 10:58:42;;;;;;;19.37;10.55;;;;;;;5.12;37.90;99777.31;7710145;32;40631;-80
2022/01/08 11:02:58;;;;;;;20.37;10.50;;;;;;;4.90;38.94;99782.53;7709920;32;37854;-79
2022/01/08 11:07:30;;;;;;;16.73;9.45;;;;;;;4.16;41.97;99787.41;7696339;32;37286;-79
2022/01/08 11:11:47;;;;;;;15.77;8.95;;;;;;;4.44;38.57;99778.69;7709873;32;39368;-81
2022/01/08 11:16:03;;;;;;;20.58;10.85;;;;;;;4.72;41.94;99780.72;7696310;32;39991;-79
2022/01/08 11:20:22;;;;;;;21.48;12.70;;;;;;;4.31;43.28;99783.25;7696040;32;38358;-81
2022/01/08 11:24:43;;;;;;;22.10;11.35;;;;;;;4.40;40.73;99777.50;7709803;32;37419;-79
2022/01/08 11:29:01;;;;;;;23.62;13.02;;;;;;;5.50;38.24;99775.16;7708180;32;39370;-79
2022/01/08 11:33:23;;;;;;;21.02;10.50;;;;;;;5.51;36.54;99768.69;7695693;32;38867;-79
2022/01/08 11:37:46;;;;;;;15.77;8.70;;;;;;;5.27;35.77;99771.44;7709545;32;37963;-79
2022/01/08 11:42:03;;;;;;;12.23;7.87;;;;;;;5.63;33.77;99762.19;7709466;32;37231;-80
2022/01/08 11:46:19;;;;;;;12.35;7.12;;;;;;;5.95;32.72;99759.03;7694923;32;39575;-80
2022/01/08 11:50:36;;;;;;;38.60;9.40;;;;;;;5.42;33.53;99757.44;7709773;32;40511;-80
2022/01/08 11:54:53;;;;;;;15.45;7.82;;;;;;;6.78;31.08;99747.72;7708961;32;37951;-80
2022/01/08 11:59:15;;;;;;;15.55;7.95;;;;;;;6.39;31.15;99745.75;7709619;32;37832;-80
2022/01/08 12:03:52;;;;;;;15.50;8.23;;;;;;;6.21;30.53;99729.75;7709610;32;39808;-80
2022/01/08 12:08:16;;;;;;;14.87;7.50;;;;;;;5.17;31.12;99728.78;7709360;32;39890;-80
2022/01/08 12:13:02;;;;;;;13.27;7.45;;;;;;;5.78;29.88;99720.28;7709266;32;37722;-80
2022/01/08 12:17:20;;;;;;;14.13;7.37;;;;;;;6.21;29.97;99705.38;7696727;32;37850;-80
2022/01/08 12:21:39;;;;;;;14.43;7.32;;;;;;;5.42;30.53;99697.97;7709206;32;38824;-80
2022/01/08 12:25:56;;;;;;;13.18;7.35;;;;;;;5.86;29.90;99683.91;7709434;32;39661;-80
2022/01/08 12:30:17;;;;;;;13.57;7.43;;;;;;;6.31;29.06;99683.91;7708887;32;38673;-79
2022/01/08 12:34:43;;;;;;;14.20;7.32;;;;;;;6.24;28.64;99683.22;7708450;32;37201;-79
2022/01/08 12:39:03;;;;;;;11.55;6.32;;;;;;;6.17;29.81;99685.28;7709741;32;39912;-79
2022/01/08 12:43:34;;;;;;;14.93;7.15;;;;;;;5.99;30.07;99676.31;7712504;32;40785;-79
2022/01/08 12:48:00;;;;;;;9.95;5.47;;;;;;;6.54;28.68;99679.38;7712487;32;37799;-81
2022/01/08 12:52:17;;;;;;;10.55;5.47;;;;;;;6.91;27.77;99671.47;7699975;32;37897;-80
2022/01/08 12:56:33;;;;;;;10.75;5.97;;;;;;;7.07;26.01;99658.97;7712472;32;39337;-82
2022/01/08 13:01:06;;;;;;;11.05;5.57;;;;;;;6.97;26.71;99653.41;7686218;32;39734;-82
2022/01/08 13:05:22;;;;;;;10.87;6.10;;;;;;;6.79;27.32;99667.25;7712502;32;38653;-81
2022/01/08 13:09:38;;;;;;;9.57;5.57;;;;;;;6.66;26.59;99663.03;7712403;32;37791;-81
2022/01/08 13:14:05;;;;;;;11.02;5.35;;;;;;;6.88;25.29;99649.47;7712253;32;39316;-81
2022/01/08 13:18:26;;;;;;;8.40;4.47;;;;;;;7.51;24.32;99636.41;7712260;32;39627;-81
2022/01/08 13:22:48;;;;;;;10.68;5.75;;;;;;;7.05;23.21;99642.13;7712179;32;37910;-81
2022/01/08 13:27:07;;;;;;;9.27;5.07;;;;;;;7.62;24.32;99631.91;7712024;32;37367;-82
2022/01/08 13:31:42;;;;;;;10.88;5.50;;;;;;;7.98;24.07;99640.38;7712186;32;39337;-81
2022/01/08 13:36:00;;;;;;;12.85;5.62;;;;;;;8.61;22.55;99638.72;7712017;32;40802;-81
2022/01/08 13:40:16;;;;;;;11.45;5.40;;;;;;;8.84;22.88;99644.81;7712126;32;37795;-81
2022/01/08 13:44:33;;;;;;;9.23;5.10;;;;;;;9.92;21.80;99634.28;7711863;32;37955;-81
2022/01/08 13:48:49;;;;;;;10.85;5.57;;;;;;;11.28;20.02;99621.75;7711932;32;40196;-82
2022/01/08 13:53:09;;;;;;;11.40;5.57;;;;;;;14.87;16.46;99616.66;7711069;32;40815;-81
2022/01/08 13:57:32;;;;;;;12.70;6.95;;;;;;;17.13;14.64;99600.22;7711693;32;38388;-81
2022/01/08 14:01:49;;;;;;;13.30;7.37;;;;;;;17.50;13.92;99592.50;7698922;32;37149;-83
2022/01/08 14:06:06;;;;;;;12.30;6.97;;;;;;;17.06;14.60;99597.94;7711624;32;40097;-80
2022/01/08 14:10:23;;;;;;;14.80;7.45;;;;;;;16.31;15.31;99596.94;7711618;32;39885;-80
2022/01/08 14:14:49;;;;;;;15.82;8.63;;;;;;;14.46;17.10;99606.41;7711342;32;38757;-82
2022/01/08 14:19:16;;;;;;;13.80;6.97;;;;;;;13.74;18.65;99599.38;7711548;32;37906;-81
2022/01/08 14:23:32;;;;;;;14.70;7.70;;;;;;;12.13;20.70;99608.94;7697951;32;39590;-80
2022/01/08 14:27:48;;;;;;;16.52;8.52;;;;;;;10.80;23.10;99605.84;7711089;32;40810;-80
2022/01/08 14:32:09;;;;;;;22.17;8.13;;;;;;;9.48;25.05;99612.97;7697464;32;37895;-80
2022/01/08 14:36:26;;;;;;;16.08;9.05;;;;;;;8.33;26.94;99609.16;7711180;32;37185;-79
2022/01/08 14:40:46;;;;;;;20.67;9.57;;;;;;;7.77;28.10;99602.22;7711407;32;39282;-79
2022/01/08 14:45:03;;;;;;;17.02;9.40;;;;;;;7.09;29.32;99599.09;7711245;32;39920;-79
2022/01/08 14:49:20;;;;;;;16.60;9.23;;;;;;;6.29;31.24;99612.91;7711086;32;38326;-79
2022/01/08 14:53:36;;;;;;;21.70;11.23;;;;;;;5.82;32.13;99614.03;7710771;32;37425;-79
2022/01/08 14:57:52;;;;;;;57.95;22.05;;;;;;;5.56;33.08;99604.66;7709391;32;40352;-79
2022/01/08 15:02:08;;;;;;;47.53;21.00;;;;;;;5.15;33.44;99600.38;7710885;32;40822;-79
2022/01/08 15:06:25;;;;;;;14.48;8.13;;;;;;;4.55;34.87;99582.69;7710787;32;37896;-79
2022/01/08 15:10:46;;;;;;;14.73;7.32;;;;;;;4.16;36.17;99588.59;7710954;32;37998;-78
2022/01/08 15:15:10;;;;;;;19.58;10.25;;;;;;;4.01;35.91;99593.62;7710641;32;40146;-78
2022/01/08 15:19:26;;;;;;;17.48;9.07;;;;;;;3.76;36.29;99576.59;7710692;32;39913;-78
2022/01/08 15:23:42;;;;;;;18.23;9.77;;;;;;;3.81;36.17;99573.19;7710528;32;37905;-78
2022/01/08 15:27:58;;;;;;;16.73;8.73;;;;;;;3.41;37.21;99572.97;7709926;32;37140;-78
2022/01/08 15:32:14;;;;;;;17.35;8.65;;;;;;;3.12;38.04;99572.75;7710240;32;40059;-78
2022/01/08 15:36:33;;;;;;;17.50;9.05;;;;;;;2.97;38.67;99571.31;7710050;32;40011;-79
2022/01/08 15:40:49;;;;;;;19.60;9.77;;;;;;;2.98;38.91;99561.34;7709850;32;37432;-79
2022/01/08 15:45:06;;;;;;;14.87;8.18;;;;;;;2.92;38.30;99557.69;7696327;32;36822;-78
2022/01/08 15:49:22;;;;;;;18.35;7.78;;;;;;;2.93;36.87;99553.97;7696225;32;39261;-79
2022/01/08 15:53:38;;;;;;;15.07;8.68;;;;;;;2.84;37.64;99549.94;7709776;32;40793;-79
2022/01/08 15:57:54;;;;;;;20.23;10.23;;;;;;;2.77;37.04;99551.87;7709526;32;38597;-78
2022/01/08 16:02:11;;;;;;;16.83;8.43;;;;;;;2.33;38.79;99548.44;7695757;32;37263;-79
2022/01/08 16:06:27;;;;;;;14.68;8.13;;;;;;;2.53;38.51;99546.38;7709260;32;40949;-78
2022/01/08 16:10:43;;;;;;;15.63;8.90;;;;;;;2.29;38.96;99547.25;7709260;32;40539;-78
2022/01/08 16:14:59;;;;;;;16.12;8.07;;;;;;;2.35;38.10;99559.84;7710801;32;37515;-78
2022/01/08 16:19:15;;;;;;;14.65;8.68;;;;;;;2.38;39.92;99564.75;7712827;32;37114;-78
2022/01/08 16:23:31;;;;;;;16.23;8.70;;;;;;;2.15;40.75;99581.53;7712831;32;39826;-77
2022/01/08 16:27:48;;;;;;;15.95;8.60;;;;;;;2.25;40.52;99584.56;7712416;32;39993;-78
2022/01/08 16:32:06;;;;;;;14.52;8.93;;;;;;;2.24;40.69;99589.13;7712520;32;37548;-77
2022/01/08 16:36:23;;;;;;;16.00;8.73;;;;;;;2.55;39.78;99589.19;7712340;32;37376;-77
2022/01/08 16:40:39;;;;;;;19.90;10.05;;;;;;;2.13;40.37;99597.91;7712409;32;39440;-77
2022/01/08 16:44:55;;;;;;;15.43;9.23;;;;;;;2.03;41.45;99619.09;7712322;32;39648;-77
2022/01/08 16:49:13;;;;;;;27.13;13.60;;;;;;;2.44;40.72;99609.59;7712328;32;38105;-77
2022/01/08 16:53:31;;;;;;;29.58;14.02;;;;;;;2.09;41.93;99612.84;7712145;32;37205;-77
2022/01/08 16:57:47;;;;;;;23.95;11.77;;;;;;;2.39;41.48;99606.75;7711980;32;39408;-77
2022/01/08 17:02:03;;;;;;;21.25;11.45;;;;;;;2.26;42.63;99613.09;7711072;32;40974;-76
2022/01/08 17:06:19;;;;;;;23.27;12.37;;;;;;;2.47;41.02;99608.31;7711126;32;38067;-77
2022/01/08 17:10:35;;;;;;;25.20;15.18;;;;;;;2.39;40.80;99604.06;7711163;32;37287;-77
2022/01/08 17:14:52;;;;;;;27.73;13.27;;;;;;;2.44;41.56;99593.47;7711747;32;39333;-77
2022/01/08 17:19:08;;;;;;;19.12;13.13;;;;;;;2.51;41.73;99585.31;7698144;32;39935;-76
2022/01/08 17:23:25;;;;;;;24.75;12.73;;;;;;;2.08;43.12;99594.25;7711620;32;37916;-77
2022/01/08 17:27:41;;;;;;;26.20;13.70;;;;;;;2.18;43.00;99589.19;7709883;32;38065;-77
2022/01/08 17:31:57;;;;;;;24.15;13.23;;;;;;;2.12;43.50;99582.81;7710984;32;38963;-76
2022/01/08 17:36:13;;;;;;;26.83;13.73;;;;;;;2.00;44.03;99590.78;7711144;32;39572;-76
2022/01/08 17:40:29;;;;;;;23.70;13.68;;;;;;;2.02;44.06;99582.50;7711665;32;37590;-77
2022/01/08 17:44:47;;;;;;;29.85;15.50;;;;;;;1.96;44.48;99588.75;7711827;32;37215;-77
2022/01/08 17:49:06;;;;;;;25.95;14.30;;;;;;;2.11;44.16;99583.84;7711784;32;40172;-77
2022/01/08 17:53:22;;;;;;;30.30;16.23;;;;;;;1.93;44.61;99568.50;7711747;32;40235;-78
2022/01/08 17:57:38;;;;;;;30.70;16.65;;;;;;;2.11;46.64;99569.59;7711540;32;38668;-79
2022/01/08 18:01:54;;;;;;;25.33;15.48;;;;;;;1.96;44.16;99560.00;7711774;32;37155;-79
2022/01/08 18:06:10;;;;;;;23.52;13.45;;;;;;;2.09;43.65;99551.00;7711651;32;39851;-79
2022/01/08 18:10:26;;;;;;;29.55;14.57;;;;;;;2.06;43.65;99564.88;7711509;32;40808;-79
2022/01/08 18:14:44;;;;;;;24.02;12.80;;;;;;;2.24;41.92;99551.47;7697695;32;37961;-79
2022/01/08 18:19:00;;;;;;;28.55;13.15;;;;;;;2.01;43.72;99554.78;7711453;32;37297;-79
2022/01/08 18:23:17;;;;;;;30.35;14.77;;;;;;;2.31;42.95;99550.56;7711378;32;39856;-79
2022/01/08 18:27:33;;;;;;;31.83;16.15;;;;;;;2.17;43.13;99544.50;7711098;32;39983;-78
2022/01/08 18:31:49;;;;;;;28.17;13.82;;;;;;;1.94;44.35;99534.38;7709458;32;37902;-79
2022/01/08 18:36:06;;;;;;;24.02;13.38;;;;;;;1.83;44.39;99531.38;7695896;32;37695;-78
2022/01/08 18:40:27;;;;;;;21.77;11.07;;;;;;;1.93;44.35;99527.34;7696944;32;40036;-79
2022/01/08 18:44:46;;;;;;;29.35;15.13;;;;;;;1.91;44.16;99524.06;7710669;32;39893;-79
2022/01/08 18:49:03;;;;;;;30.10;16.02;;;;;;;1.93;43.61;99538.09;7710660;32;37949;-79
2022/01/08 18:53:19;;;;;;;25.00;13.60;;;;;;;1.89;44.11;99526.97;7710458;32;37937;-79
2022/01/08 18:57:35;;;;;;;24.70;12.75;;;;;;;1.98;43.70;99509.50;7697025;32;39293;-79
2022/01/08 19:01:51;;;;;;;26.10;13.30;;;;;;;2.06;44.13;99505.72;7710472;32;39933;-79
2022/01/08 19:06:07;;;;;;;20.88;11.18;;;;;;;2.00;43.50;99507.44;7710293;32;37941;-79
2022/01/08 19:10:23;;;;;;;24.35;11.43;;;;;;;1.94;44.50;99496.75;7710463;32;37488;-79
2022/01/08 19:14:42;;;;;;;20.35;11.20;;;;;;;2.12;43.53;99487.84;7710189;32;39414;-79
2022/01/08 19:19:04;;;;;;;21.77;10.57;;;;;;;2.20;42.77;99491.06;7710230;32;39835;-79
2022/01/08 19:23:21;;;;;;;34.20;17.17;;;;;;;2.21;43.14;99487.34;7696490;32;38737;-79
2022/01/08 19:27:37;;;;;;;51.97;20.08;;;;;;;2.06;42.96;99474.25;7709837;32;37315;-79
2022/01/08 19:31:53;;;;;;;40.28;19.60;;;;;;;1.94;43.19;99476.06;7709836;32;39260;-79
2022/01/08 19:36:09;;;;;;;27.62;13.23;;;;;;;2.14;41.91;99464.25;7709858;32;39671;-79
2022/01/08 19:40:27;;;;;;;21.20;12.20;;;;;;;2.42;42.25;99461.03;7709430;32;37936;-79
2022/01/08 19:44:45;;;;;;;20.77;12.15;;;;;;;2.43;42.44;99452.72;7709559;32;37392;-79
2022/01/08 19:49:02;;;;;;;19.98;11.40;;;;;;;2.50;40.89;99449.12;7697016;32;39414;-79
2022/01/08 19:53:18;;;;;;;18.37;10.70;;;;;;;2.50;41.46;99455.34;7712705;32;39635;-79
2022/01/08 19:57:37;;;;;;;21.58;11.23;;;;;;;2.23;41.51;99458.34;7712577;32;38706;-79
2022/01/08 20:01:56;;;;;;;23.08;10.18;;;;;;;2.19;41.66;99450.94;7712551;32;37787;-78
2022/01/08 20:06:17;;;;;;;18.85;10.23;;;;;;;2.44;41.41;99448.16;7712544;32;39213;-79
2022/01/08 20:10:33;;;;;;;17.73;10.35;;;;;;;2.16;42.77;99446.84;7712552;32;39656;-79
2022/01/08 20:14:49;;;;;;;20.27;12.18;;;;;;;2.10;43.26;99442.34;7712449;32;37638;-79
2022/01/08 20:19:05;;;;;;;23.65;10.65;;;;;;;2.38;41.23;99444.53;7712490;32;37760;-79
2022/01/08 20:23:21;;;;;;;20.37;10.80;;;;;;;2.07;40.44;99437.47;7712432;32;39915;-78
2022/01/08 20:27:37;;;;;;;18.62;10.45;;;;;;;2.30;40.40;99425.19;7712184;32;40484;-78